Bl Darnell — WDE5130 — position and weather

sailwx.info

Track history (hours):
 
Tides and Currents Weather Stations Pressure Air Temp Water Temp Dewpoint Dewpoint Depression Visibility Wind Speed Wind Dir Waves Ship Positions

Bl Darnell

Owner: The Tug BL Darnell, L.L.C., Channelview, TX. More information available from US FCC via Universal Licensing System and Coast Guard Vessel Documentation Center.

Last reported at 2017-Dec-11 13:02 UTC. Time now 2017-Dec-12 06:08 UTC.
Position N 29°46' W 095°06'.

Length 22 m.

Type: Other ship. MMSI: 367362460.

Date/timePositionNaut miles runAvg speedWind from/ knotsBaromVisibWave heightAir tempDewpointWater temp
2017-Dec-11 13:02N 29°46' W 095°06'0 2.5
2017-Dec-11 13:00N 29°46' W 095°06'1 2.4
2017-Dec-11 12:30N 29°47' W 095°05'0 0.0
2017-Dec-11 12:00N 29°47' W 095°05'0 0.0
2017-Dec-11 11:30N 29°47' W 095°05'0 0.0
2017-Dec-11 11:00N 29°47' W 095°05'0 0.0
2017-Dec-11 10:27N 29°46' W 095°05'0 0.2
2017-Dec-11 09:58N 29°46' W 095°05'0 0.4
2017-Dec-11 09:29N 29°46' W 095°05'1 2.0
2017-Dec-11 09:00N 29°45' W 095°04'2 3.6
2017-Dec-11 08:30N 29°46' W 095°06'0 0.0
2017-Dec-10 20:48N 29°46' W 095°06'2 5.2
2017-Dec-10 20:30N 29°46' W 095°04'2 4.5
2017-Dec-10 20:00N 29°44' W 095°03'0 0.0
2017-Dec-10 19:30N 29°44' W 095°03'0 0.2
2017-Dec-10 19:00N 29°44' W 095°03'0 0.2
2017-Dec-10 17:34N 29°44' W 095°03'0 3.9
2017-Dec-10 17:29N 29°44' W 095°04'2 4.5
2017-Dec-10 16:59N 29°46' W 095°05'1 1.4
2017-Dec-10 16:30N 29°46' W 095°06'0 0.0
2017-Dec-10 16:00N 29°46' W 095°06'0 0.6
2017-Dec-10 15:30N 29°46' W 095°06'1 2.1
2017-Dec-10 14:56N 29°46' W 095°05'1 3.3
2017-Dec-10 14:30N 29°48' W 095°04'0 0.0
2017-Dec-10 14:00N 29°48' W 095°04'1 2.1
2017-Dec-10 13:30N 29°47' W 095°05'2 4.9
2017-Dec-10 13:00N 29°45' W 095°06'1 2.3
2017-Dec-10 12:30N 29°46' W 095°05'1 1.7
2017-Dec-10 12:00N 29°46' W 095°06'0 0.0
2017-Dec-10 11:30N 29°46' W 095°06'0 0.0
2017-Dec-10 11:00N 29°46' W 095°06'0 0.0
2017-Dec-10 10:30N 29°46' W 095°06'0 0.0
2017-Dec-10 10:00N 29°46' W 095°06'0 0.0
2017-Dec-10 09:30N 29°46' W 095°06'0 0.0
2017-Dec-10 09:00N 29°46' W 095°06'0 0.0
2017-Dec-10 08:30N 29°46' W 095°06'0 0.0
2017-Dec-10 08:00N 29°46' W 095°06'0 0.0
2017-Dec-10 07:30N 29°46' W 095°06'0 0.0
2017-Dec-10 07:00N 29°46' W 095°06'0 0.0
2017-Dec-10 06:30N 29°46' W 095°06'0 0.0
2017-Dec-10 06:00N 29°46' W 095°06'0 0.0
2017-Dec-10 05:30N 29°46' W 095°06'0 0.0
2017-Dec-10 05:00N 29°46' W 095°06'1 2.3
2017-Dec-10 04:30N 29°46' W 095°05'3 3.9
2017-Dec-10 03:52N 29°44' W 095°03'0 0.5
2017-Dec-10 03:18N 29°44' W 095°03'0 0.3
2017-Dec-10 03:00N 29°44' W 095°03'3 5.8
2017-Dec-10 02:26N 29°46' W 095°06'0 0.1
2017-Dec-10 02:00N 29°46' W 095°06'0 0.0
2017-Dec-10 01:29N 29°46' W 095°06'0 0.0
2017-Dec-10 00:53N 29°46' W 095°06'0 0.0
2017-Dec-10 00:30N 29°46' W 095°06'0 0.0
2017-Dec-09 23:49N 29°46' W 095°06'0 0.0
2017-Dec-09 23:30N 29°46' W 095°06'0 0.0
2017-Dec-09 16:50N 29°46' W 095°06'0 0.0
2017-Dec-09 16:20N 29°46' W 095°06'0 0.0
2017-Dec-09 16:00N 29°46' W 095°06'1 1.4
2017-Dec-09 15:29N 29°46' W 095°05'2 3.6
2017-Dec-09 14:56N 29°47' W 095°04'1 2.5
2017-Dec-09 14:28N 29°46' W 095°05'0 0.6
2017-Dec-09 14:00N 29°46' W 095°05'0 0.5
2017-Dec-09 13:30N 29°46' W 095°05'1 2.5
2017-Dec-09 13:00N 29°46' W 095°06'0 0.0
2017-Dec-09 12:30N 29°46' W 095°06'0 0.0
2017-Dec-09 12:00N 29°46' W 095°06'0 0.0
2017-Dec-09 11:30N 29°46' W 095°06'0 0.0
2017-Dec-09 11:00N 29°46' W 095°06'0 0.0
2017-Dec-09 10:30N 29°46' W 095°06'0 0.0
2017-Dec-09 09:59N 29°46' W 095°06'0 0.0
2017-Dec-09 09:30N 29°46' W 095°06'0 0.0
2017-Dec-09 08:56N 29°46' W 095°06'0 0.0
2017-Dec-09 08:30N 29°46' W 095°06'0 0.0
2017-Dec-09 08:00N 29°46' W 095°06'0 0.0
2017-Dec-09 07:30N 29°46' W 095°06'0 0.0
2017-Dec-09 07:00N 29°46' W 095°06'0 0.0
2017-Dec-08 20:24N 29°46' W 095°06'0 0.0
2017-Dec-08 19:55N 29°46' W 095°06'0 0.0
2017-Dec-08 19:28N 29°46' W 095°06'0 0.0
2017-Dec-08 18:59N 29°46' W 095°06'0 0.0
2017-Dec-08 17:59N 29°46' W 095°06'2 3.8
2017-Dec-08 17:29N 29°47' W 095°04'0 0.2
2017-Dec-08 15:43N 29°47' W 095°04'1 3.3
2017-Dec-08 15:25N 29°46' W 095°05'1 3.1
2017-Dec-08 14:59N 29°45' W 095°06'2 1.3
2017-Dec-08 13:42N 29°44' W 095°08'0 1.4
2017-Dec-08 13:28N 29°44' W 095°07'2 4.2
2017-Dec-08 13:00N 29°45' W 095°06'2 4.7
2017-Dec-08 12:29N 29°47' W 095°04'0 0.2
2017-Dec-08 11:59N 29°47' W 095°04'2 0.4
2017-Dec-08 06:40N 29°46' W 095°06'1 4.6
2017-Dec-08 06:30N 29°46' W 095°05'3 5.1
2017-Dec-08 06:00N 29°44' W 095°03'2 3.2
2017-Dec-08 05:31N 29°44' W 095°01'4 4.9
2017-Dec-08 04:44N 29°46' W 095°05'0 0.0
2017-Dec-07 15:22N 29°45' W 095°06'0 0.0
2017-Dec-07 11:41N 29°45' W 095°06'1 3.6
2017-Dec-07 11:30N 29°46' W 095°05'1 1.7
2017-Dec-07 10:50N 29°47' W 095°05'1 3.1
2017-Dec-07 10:23N 29°46' W 095°06'0 0.0
2017-Dec-07 09:19N 29°46' W 095°06'0 0.0
2017-Dec-07 08:46N 29°46' W 095°06'0 0.0
2017-Dec-07 08:30N 29°46' W 095°06'0 0.0
2017-Dec-07 07:48N 29°46' W 095°06'0 0.0
2017-Dec-07 06:53N 29°46' W 095°06'0 0.0
2017-Dec-07 05:04N 29°46' W 095°06'0 4.6
2017-Dec-07 04:59N 29°46' W 095°06'2 4.7
2017-Dec-07 04:30N 29°44' W 095°07'3 6.7
2017-Dec-07 04:00N 29°45' W 095°11'3 6.3
2017-Dec-07 03:30N 29°43' W 095°14'1 2.5
2017-Dec-07 03:00N 29°44' W 095°16'0 0.7
2017-Dec-07 02:30N 29°44' W 095°15'3 5.4
2017-Dec-07 01:59N 29°44' W 095°12'3 5.8
2017-Dec-07 01:30N 29°44' W 095°09'3 6.0
2017-Dec-07 00:59N 29°45' W 095°06'1 0.3
2017-Dec-06 21:00N 29°46' W 095°06'  
2017-Dec-04 10:07N 29°44' W 095°01'0 0.0
2017-Dec-04 10:00N 29°44' W 095°01'0 0.0
2017-Dec-04 09:29N 29°44' W 095°01'0 0.0
2017-Dec-04 09:00N 29°44' W 095°01'0 0.0
2017-Dec-04 08:26N 29°44' W 095°01'0 0.0
2017-Dec-04 07:29N 29°44' W 095°01'0 0.0
2017-Dec-04 06:59N 29°44' W 095°01'2 3.4
2017-Dec-04 06:30N 29°44' W 095°03'3 6.0
2017-Dec-04 05:56N 29°46' W 095°06'2 4.9
2017-Dec-04 05:30N 29°45' W 095°04'3 4.5
2017-Dec-04 04:54N 29°44' W 095°01'0 0.0
2017-Dec-04 04:28N 29°44' W 095°01'0 0.0
2017-Dec-04 03:55N 29°44' W 095°01'0 0.0
2017-Dec-04 03:30N 29°44' W 095°01'0 0.0
2017-Dec-03 19:24N 29°44' W 095°01'0 0.0
2017-Dec-03 18:56N 29°44' W 095°01'0 0.0
2017-Dec-03 18:28N 29°44' W 095°01'1 0.9
2017-Dec-03 17:53N 29°43' W 095°01'0 0.4
2017-Dec-03 17:30N 29°44' W 095°01'0 0.5
2017-Dec-03 17:00N 29°44' W 095°01'0 0.0
2017-Dec-03 16:30N 29°44' W 095°01'0 0.0
2017-Dec-03 16:00N 29°44' W 095°01'0 0.0
2017-Dec-03 15:30N 29°44' W 095°01'0 0.0
2017-Dec-03 15:00N 29°44' W 095°01'0 0.0
2017-Dec-03 14:30N 29°44' W 095°01'0 0.0
2017-Dec-03 13:59N 29°44' W 095°01'0 0.0
2017-Dec-03 13:30N 29°44' W 095°01'0 0.0
2017-Dec-03 13:00N 29°44' W 095°01'0 0.0
2017-Dec-03 12:30N 29°44' W 095°01'0 0.0
2017-Dec-03 12:00N 29°44' W 095°01'0 0.0
2017-Dec-03 11:28N 29°44' W 095°01'0 0.0
2017-Dec-03 11:00N 29°44' W 095°01'0 0.0
2017-Dec-03 10:29N 29°44' W 095°01'0 0.0
2017-Dec-03 09:47N 29°44' W 095°01'0 0.0
2017-Dec-03 09:28N 29°44' W 095°01'0 0.0
2017-Dec-03 09:00N 29°44' W 095°01'0 0.0
2017-Dec-03 08:29N 29°44' W 095°01'0 0.0
2017-Dec-03 07:57N 29°44' W 095°01'0 0.0
2017-Dec-03 07:29N 29°44' W 095°01'0 0.0
2017-Dec-03 07:00N 29°44' W 095°01'0 0.0
2017-Dec-03 06:30N 29°44' W 095°01'2 3.5
2017-Dec-03 06:00N 29°44' W 095°03'3 5.7
2017-Dec-03 05:30N 29°47' W 095°04'1 1.7
2017-Dec-03 05:00N 29°47' W 095°04'0 0.0
2017-Dec-03 04:30N 29°47' W 095°04'2 4.2
2017-Dec-03 04:00N 29°46' W 095°05'1 0.1
2017-Dec-02 23:05N 29°46' W 095°06'0 0.0
2017-Dec-02 21:37N 29°46' W 095°06'1 4.8
2017-Dec-02 21:29N 29°46' W 095°05'1 1.7
2017-Dec-02 20:49N 29°47' W 095°05'1 1.6
2017-Dec-02 20:25N 29°46' W 095°05'0 0.0
2017-Dec-02 17:26N 29°46' W 095°05'0 0.0
2017-Dec-02 16:48N 29°46' W 095°05'0 0.0
2017-Dec-02 16:25N 29°46' W 095°05'0 0.0
2017-Dec-02 15:50N 29°46' W 095°05'1 1.5
2017-Dec-02 15:22N 29°47' W 095°04'2 0.4
2017-Dec-02 09:26N 29°45' W 095°06'0 0.0
2017-Dec-02 08:59N 29°45' W 095°06'0 0.0
2017-Dec-02 08:30N 29°45' W 095°06'0 0.0
2017-Dec-02 08:00N 29°45' W 095°06'0 0.0
2017-Dec-02 07:25N 29°45' W 095°06'0 0.0
2017-Dec-02 07:00N 29°45' W 095°06'0 0.0
2017-Dec-02 06:29N 29°45' W 095°06'0 0.0
2017-Dec-02 05:59N 29°45' W 095°06'0 0.0
2017-Dec-02 05:30N 29°45' W 095°06'0 0.0
2017-Dec-02 04:56N 29°45' W 095°06'0 0.0
2017-Dec-02 04:22N 29°45' W 095°06'0 0.0
2017-Dec-02 03:54N 29°45' W 095°06'0 0.0
2017-Dec-02 03:24N 29°45' W 095°06'0 0.0
2017-Dec-02 02:00N 29°45' W 095°06'0 0.0
2017-Dec-02 01:25N 29°45' W 095°06'0 0.0
2017-Dec-02 01:00N 29°45' W 095°06'1 0.1
2017-Dec-01 14:15N 29°45' W 095°06'1 3.7
2017-Dec-01 14:00N 29°46' W 095°06'1 1.3
2017-Dec-01 13:29N 29°46' W 095°05'  
Track history (hours):
 
Tides and Currents Weather Stations Pressure Air Temp Water Temp Dewpoint Dewpoint Depression Visibility Wind Speed Wind Dir Waves Ship Positions

Bl Darnell

Owner: The Tug BL Darnell, L.L.C., Channelview, TX. More information available from US FCC via Universal Licensing System and Coast Guard Vessel Documentation Center.

Last reported at 2017-Dec-11 13:02 UTC. Time now 2017-Dec-12 06:08 UTC.
Position N 29°46' W 095°06'.

Length 22 m.

Type: Other ship. MMSI: 367362460.

Date/timePositionNaut miles runAvg speedWind from/ knotsBaromVisibWave heightAir tempDewpointWater temp
2017-Dec-11 13:02N 29°46' W 095°06'0 2.5
2017-Dec-11 13:00N 29°46' W 095°06'1 2.4
2017-Dec-11 12:30N 29°47' W 095°05'0 0.0
2017-Dec-11 12:00N 29°47' W 095°05'0 0.0
2017-Dec-11 11:30N 29°47' W 095°05'0 0.0
2017-Dec-11 11:00N 29°47' W 095°05'0 0.0
2017-Dec-11 10:27N 29°46' W 095°05'0 0.2
2017-Dec-11 09:58N 29°46' W 095°05'0 0.4
2017-Dec-11 09:29N 29°46' W 095°05'1 2.0
2017-Dec-11 09:00N 29°45' W 095°04'2 3.6
2017-Dec-11 08:30N 29°46' W 095°06'0 0.0
2017-Dec-10 20:48N 29°46' W 095°06'2 5.2
2017-Dec-10 20:30N 29°46' W 095°04'2 4.5
2017-Dec-10 20:00N 29°44' W 095°03'0 0.0
2017-Dec-10 19:30N 29°44' W 095°03'0 0.2
2017-Dec-10 19:00N 29°44' W 095°03'0 0.2
2017-Dec-10 17:34N 29°44' W 095°03'0 3.9
2017-Dec-10 17:29N 29°44' W 095°04'2 4.5
2017-Dec-10 16:59N 29°46' W 095°05'1 1.4
2017-Dec-10 16:30N 29°46' W 095°06'0 0.0
2017-Dec-10 16:00N 29°46' W 095°06'0 0.6
2017-Dec-10 15:30N 29°46' W 095°06'1 2.1
2017-Dec-10 14:56N 29°46' W 095°05'1 3.3
2017-Dec-10 14:30N 29°48' W 095°04'0 0.0
2017-Dec-10 14:00N 29°48' W 095°04'1 2.1
2017-Dec-10 13:30N 29°47' W 095°05'2 4.9
2017-Dec-10 13:00N 29°45' W 095°06'1 2.3
2017-Dec-10 12:30N 29°46' W 095°05'1 1.7
2017-Dec-10 12:00N 29°46' W 095°06'0 0.0
2017-Dec-10 11:30N 29°46' W 095°06'0 0.0
2017-Dec-10 11:00N 29°46' W 095°06'0 0.0
2017-Dec-10 10:30N 29°46' W 095°06'0 0.0
2017-Dec-10 10:00N 29°46' W 095°06'0 0.0
2017-Dec-10 09:30N 29°46' W 095°06'0 0.0
2017-Dec-10 09:00N 29°46' W 095°06'0 0.0
2017-Dec-10 08:30N 29°46' W 095°06'0 0.0
2017-Dec-10 08:00N 29°46' W 095°06'0 0.0
2017-Dec-10 07:30N 29°46' W 095°06'0 0.0
2017-Dec-10 07:00N 29°46' W 095°06'0 0.0
2017-Dec-10 06:30N 29°46' W 095°06'0 0.0
2017-Dec-10 06:00N 29°46' W 095°06'0 0.0
2017-Dec-10 05:30N 29°46' W 095°06'0 0.0
2017-Dec-10 05:00N 29°46' W 095°06'1 2.3
2017-Dec-10 04:30N 29°46' W 095°05'3 3.9
2017-Dec-10 03:52N 29°44' W 095°03'0 0.5
2017-Dec-10 03:18N 29°44' W 095°03'0 0.3
2017-Dec-10 03:00N 29°44' W 095°03'3 5.8
2017-Dec-10 02:26N 29°46' W 095°06'0 0.1
2017-Dec-10 02:00N 29°46' W 095°06'0 0.0
2017-Dec-10 01:29N 29°46' W 095°06'0 0.0
2017-Dec-10 00:53N 29°46' W 095°06'0 0.0
2017-Dec-10 00:30N 29°46' W 095°06'0 0.0
2017-Dec-09 23:49N 29°46' W 095°06'0 0.0
2017-Dec-09 23:30N 29°46' W 095°06'0 0.0
2017-Dec-09 16:50N 29°46' W 095°06'0 0.0
2017-Dec-09 16:20N 29°46' W 095°06'0 0.0
2017-Dec-09 16:00N 29°46' W 095°06'1 1.4
2017-Dec-09 15:29N 29°46' W 095°05'2 3.6
2017-Dec-09 14:56N 29°47' W 095°04'1 2.5
2017-Dec-09 14:28N 29°46' W 095°05'0 0.6
2017-Dec-09 14:00N 29°46' W 095°05'0 0.5
2017-Dec-09 13:30N 29°46' W 095°05'1 2.5
2017-Dec-09 13:00N 29°46' W 095°06'0 0.0
2017-Dec-09 12:30N 29°46' W 095°06'0 0.0
2017-Dec-09 12:00N 29°46' W 095°06'0 0.0
2017-Dec-09 11:30N 29°46' W 095°06'0 0.0
2017-Dec-09 11:00N 29°46' W 095°06'0 0.0
2017-Dec-09 10:30N 29°46' W 095°06'0 0.0
2017-Dec-09 09:59N 29°46' W 095°06'0 0.0
2017-Dec-09 09:30N 29°46' W 095°06'0 0.0
2017-Dec-09 08:56N 29°46' W 095°06'0 0.0
2017-Dec-09 08:30N 29°46' W 095°06'0 0.0
2017-Dec-09 08:00N 29°46' W 095°06'0 0.0
2017-Dec-09 07:30N 29°46' W 095°06'0 0.0
2017-Dec-09 07:00N 29°46' W 095°06'0 0.0
2017-Dec-08 20:24N 29°46' W 095°06'0 0.0
2017-Dec-08 19:55N 29°46' W 095°06'0 0.0
2017-Dec-08 19:28N 29°46' W 095°06'0 0.0
2017-Dec-08 18:59N 29°46' W 095°06'0 0.0
2017-Dec-08 17:59N 29°46' W 095°06'2 3.8
2017-Dec-08 17:29N 29°47' W 095°04'0 0.2
2017-Dec-08 15:43N 29°47' W 095°04'1 3.3
2017-Dec-08 15:25N 29°46' W 095°05'1 3.1
2017-Dec-08 14:59N 29°45' W 095°06'2 1.3
2017-Dec-08 13:42N 29°44' W 095°08'0 1.4
2017-Dec-08 13:28N 29°44' W 095°07'2 4.2
2017-Dec-08 13:00N 29°45' W 095°06'2 4.7
2017-Dec-08 12:29N 29°47' W 095°04'0 0.2
2017-Dec-08 11:59N 29°47' W 095°04'2 0.4
2017-Dec-08 06:40N 29°46' W 095°06'1 4.6
2017-Dec-08 06:30N 29°46' W 095°05'3 5.1
2017-Dec-08 06:00N 29°44' W 095°03'2 3.2
2017-Dec-08 05:31N 29°44' W 095°01'4 4.9
2017-Dec-08 04:44N 29°46' W 095°05'0 0.0
2017-Dec-07 15:22N 29°45' W 095°06'0 0.0
2017-Dec-07 11:41N 29°45' W 095°06'1 3.6
2017-Dec-07 11:30N 29°46' W 095°05'1 1.7
2017-Dec-07 10:50N 29°47' W 095°05'1 3.1
2017-Dec-07 10:23N 29°46' W 095°06'0 0.0
2017-Dec-07 09:19N 29°46' W 095°06'0 0.0
2017-Dec-07 08:46N 29°46' W 095°06'0 0.0
2017-Dec-07 08:30N 29°46' W 095°06'0 0.0
2017-Dec-07 07:48N 29°46' W 095°06'0 0.0
2017-Dec-07 06:53N 29°46' W 095°06'0 0.0
2017-Dec-07 05:04N 29°46' W 095°06'0 4.6
2017-Dec-07 04:59N 29°46' W 095°06'2 4.7
2017-Dec-07 04:30N 29°44' W 095°07'3 6.7
2017-Dec-07 04:00N 29°45' W 095°11'3 6.3
2017-Dec-07 03:30N 29°43' W 095°14'1 2.5
2017-Dec-07 03:00N 29°44' W 095°16'0 0.7
2017-Dec-07 02:30N 29°44' W 095°15'3 5.4
2017-Dec-07 01:59N 29°44' W 095°12'3 5.8
2017-Dec-07 01:30N 29°44' W 095°09'3 6.0
2017-Dec-07 00:59N 29°45' W 095°06'1 0.3
2017-Dec-06 21:00N 29°46' W 095°06'  
2017-Dec-04 10:07N 29°44' W 095°01'0 0.0
2017-Dec-04 10:00N 29°44' W 095°01'0 0.0
2017-Dec-04 09:29N 29°44' W 095°01'0 0.0
2017-Dec-04 09:00N 29°44' W 095°01'0 0.0
2017-Dec-04 08:26N 29°44' W 095°01'0 0.0
2017-Dec-04 07:29N 29°44' W 095°01'0 0.0
2017-Dec-04 06:59N 29°44' W 095°01'2 3.4
2017-Dec-04 06:30N 29°44' W 095°03'3 6.0
2017-Dec-04 05:56N 29°46' W 095°06'2 4.9
2017-Dec-04 05:30N 29°45' W 095°04'3 4.5
2017-Dec-04 04:54N 29°44' W 095°01'0 0.0
2017-Dec-04 04:28N 29°44' W 095°01'0 0.0
2017-Dec-04 03:55N 29°44' W 095°01'0 0.0
2017-Dec-04 03:30N 29°44' W 095°01'0 0.0
2017-Dec-03 19:24N 29°44' W 095°01'0 0.0
2017-Dec-03 18:56N 29°44' W 095°01'0 0.0
2017-Dec-03 18:28N 29°44' W 095°01'1 0.9
2017-Dec-03 17:53N 29°43' W 095°01'0 0.4
2017-Dec-03 17:30N 29°44' W 095°01'0 0.5
2017-Dec-03 17:00N 29°44' W 095°01'0 0.0
2017-Dec-03 16:30N 29°44' W 095°01'0 0.0
2017-Dec-03 16:00N 29°44' W 095°01'0 0.0
2017-Dec-03 15:30N 29°44' W 095°01'0 0.0
2017-Dec-03 15:00N 29°44' W 095°01'0 0.0
2017-Dec-03 14:30N 29°44' W 095°01'0 0.0
2017-Dec-03 13:59N 29°44' W 095°01'0 0.0
2017-Dec-03 13:30N 29°44' W 095°01'0 0.0
2017-Dec-03 13:00N 29°44' W 095°01'0 0.0
2017-Dec-03 12:30N 29°44' W 095°01'0 0.0
2017-Dec-03 12:00N 29°44' W 095°01'0 0.0
2017-Dec-03 11:28N 29°44' W 095°01'0 0.0
2017-Dec-03 11:00N 29°44' W 095°01'0 0.0
2017-Dec-03 10:29N 29°44' W 095°01'0 0.0
2017-Dec-03 09:47N 29°44' W 095°01'0 0.0
2017-Dec-03 09:28N 29°44' W 095°01'0 0.0
2017-Dec-03 09:00N 29°44' W 095°01'0 0.0
2017-Dec-03 08:29N 29°44' W 095°01'0 0.0
2017-Dec-03 07:57N 29°44' W 095°01'0 0.0
2017-Dec-03 07:29N 29°44' W 095°01'0 0.0
2017-Dec-03 07:00N 29°44' W 095°01'0 0.0
2017-Dec-03 06:30N 29°44' W 095°01'2 3.5
2017-Dec-03 06:00N 29°44' W 095°03'3 5.7
2017-Dec-03 05:30N 29°47' W 095°04'1 1.7
2017-Dec-03 05:00N 29°47' W 095°04'0 0.0
2017-Dec-03 04:30N 29°47' W 095°04'2 4.2
2017-Dec-03 04:00N 29°46' W 095°05'1 0.1
2017-Dec-02 23:05N 29°46' W 095°06'0 0.0
2017-Dec-02 21:37N 29°46' W 095°06'1 4.8
2017-Dec-02 21:29N 29°46' W 095°05'1 1.7
2017-Dec-02 20:49N 29°47' W 095°05'1 1.6
2017-Dec-02 20:25N 29°46' W 095°05'0 0.0
2017-Dec-02 17:26N 29°46' W 095°05'0 0.0
2017-Dec-02 16:48N 29°46' W 095°05'0 0.0
2017-Dec-02 16:25N 29°46' W 095°05'0 0.0
2017-Dec-02 15:50N 29°46' W 095°05'1 1.5
2017-Dec-02 15:22N 29°47' W 095°04'2 0.4
2017-Dec-02 09:26N 29°45' W 095°06'0 0.0
2017-Dec-02 08:59N 29°45' W 095°06'0 0.0
2017-Dec-02 08:30N 29°45' W 095°06'0 0.0
2017-Dec-02 08:00N 29°45' W 095°06'0 0.0
2017-Dec-02 07:25N 29°45' W 095°06'0 0.0
2017-Dec-02 07:00N 29°45' W 095°06'0 0.0
2017-Dec-02 06:29N 29°45' W 095°06'0 0.0
2017-Dec-02 05:59N 29°45' W 095°06'0 0.0
2017-Dec-02 05:30N 29°45' W 095°06'0 0.0
2017-Dec-02 04:56N 29°45' W 095°06'0 0.0
2017-Dec-02 04:22N 29°45' W 095°06'0 0.0
2017-Dec-02 03:54N 29°45' W 095°06'0 0.0
2017-Dec-02 03:24N 29°45' W 095°06'0 0.0
2017-Dec-02 02:00N 29°45' W 095°06'0 0.0
2017-Dec-02 01:25N 29°45' W 095°06'0 0.0
2017-Dec-02 01:00N 29°45' W 095°06'1 0.1
2017-Dec-01 14:15N 29°45' W 095°06'1 3.7
2017-Dec-01 14:00N 29°46' W 095°06'1 1.3
2017-Dec-01 13:29N 29°46' W 095°05'  

Dump ship's entire track history